createdAt,value
2017-04-26T00:00:04.317Z,1004.08
2017-04-26T00:00:30.401Z,1004.1
2017-04-26T00:00:56.501Z,1004.17
2017-04-26T00:01:22.660Z,1004.11
2017-04-26T00:01:48.770Z,1004.13
2017-04-26T00:02:14.863Z,1004.13
2017-04-26T00:02:41.023Z,1004.14
2017-04-26T00:03:07.167Z,1004.18
2017-04-26T00:03:33.299Z,1004.16
2017-04-26T00:03:59.432Z,1004.18
2017-04-26T00:04:25.555Z,1004.19
2017-04-26T00:04:51.686Z,1004.14
2017-04-26T00:05:17.800Z,1004.17
2017-04-26T00:05:43.917Z,1004.18
2017-04-26T00:06:10.073Z,1004.2
2017-04-26T00:06:36.194Z,1004.17
2017-04-26T00:07:02.299Z,1004.19
2017-04-26T00:07:28.404Z,1004.18
2017-04-26T00:07:54.524Z,1004.14
2017-04-26T00:08:20.611Z,1004.14
2017-04-26T00:08:46.799Z,1004.13
2017-04-26T00:09:12.949Z,1004.12
2017-04-26T00:09:39.060Z,1004.14
2017-04-26T00:10:05.159Z,1004.11
2017-04-26T00:10:31.264Z,1004.14
2017-04-26T00:10:57.397Z,1004.14
2017-04-26T00:11:23.520Z,1004.11
2017-04-26T00:11:49.625Z,1004.12
2017-04-26T00:12:15.764Z,1004.12
2017-04-26T00:12:41.905Z,1004.09
2017-04-26T00:13:08.037Z,1004.15
2017-04-26T00:13:34.127Z,1004.16
2017-04-26T00:14:00.262Z,1004.14
2017-04-26T00:14:26.390Z,1004.16
2017-04-26T00:14:52.539Z,1004.11
2017-04-26T00:15:18.669Z,1004.1
2017-04-26T00:15:44.756Z,1004.13
2017-04-26T00:16:10.875Z,1004.1
2017-04-26T00:16:36.979Z,1004.11
2017-04-26T00:17:03.071Z,1004.05
2017-04-26T00:17:29.157Z,1004.11
2017-04-26T00:17:55.263Z,1004.05
2017-04-26T00:18:21.408Z,1004.05
2017-04-26T00:18:47.542Z,1004.08
2017-04-26T00:19:13.675Z,1004.09
2017-04-26T00:19:39.800Z,1004.09
2017-04-26T00:20:05.897Z,1004.05
2017-04-26T00:20:31.987Z,1004.05
2017-04-26T00:20:58.073Z,1004.08
2017-04-26T00:21:24.235Z,1004.04
2017-04-26T00:21:50.329Z,1004.07
2017-04-26T00:22:16.439Z,1004.07
2017-04-26T00:22:42.542Z,1004.07
2017-04-26T00:23:08.666Z,1004.07
2017-04-26T00:23:34.802Z,1004.06
2017-04-26T00:24:00.956Z,1004.07
2017-04-26T00:24:27.114Z,1004.05
2017-04-26T00:24:53.223Z,1004.03
2017-04-26T00:25:19.320Z,1003.98
2017-04-26T00:25:45.410Z,1003.99
2017-04-26T00:26:11.541Z,1004.02
2017-04-26T00:26:37.667Z,1004.01
2017-04-26T00:27:03.780Z,1003.99
2017-04-26T00:27:29.904Z,1003.97
2017-04-26T00:27:56.037Z,1004.01
2017-04-26T00:28:22.171Z,1004.04
2017-04-26T00:28:48.368Z,1004.03
2017-04-26T00:29:14.498Z,1004.07
2017-04-26T00:29:40.610Z,1004.05
2017-04-26T00:30:06.728Z,1004.03
2017-04-26T00:30:32.887Z,1004.07
2017-04-26T00:30:59.004Z,1004.06
2017-04-26T00:31:25.115Z,1004.05
2017-04-26T00:31:51.302Z,1004.03
2017-04-26T00:32:17.395Z,1004.05
2017-04-26T00:32:43.533Z,1004.04
2017-04-26T00:33:09.662Z,1004.06
2017-04-26T00:33:35.786Z,1004.04
2017-04-26T00:34:01.873Z,1004.01
2017-04-26T00:34:28.024Z,1004.05
2017-04-26T00:34:54.125Z,1004.02
2017-04-26T00:35:20.236Z,1004.03
2017-04-26T00:35:46.333Z,1004.05
2017-04-26T00:36:12.436Z,1004.02
2017-04-26T00:36:38.523Z,1004.02
2017-04-26T00:37:04.650Z,1004.05
2017-04-26T00:37:30.739Z,1004.02
2017-04-26T00:37:57.066Z,1004.02
2017-04-26T00:38:23.169Z,1004.04
2017-04-26T00:38:49.279Z,1004.07
2017-04-26T00:39:15.427Z,1004.04
2017-04-26T00:39:41.558Z,1004.06
2017-04-26T00:40:07.647Z,1004.04
2017-04-26T00:40:33.761Z,1004.05
2017-04-26T00:40:59.892Z,1004.05
2017-04-26T00:41:25.983Z,1004.03
2017-04-26T00:41:52.070Z,1004.08
2017-04-26T00:42:18.201Z,1004.06
2017-04-26T00:42:44.319Z,1004.07
2017-04-26T00:43:10.450Z,1004.06
2017-04-26T00:43:36.590Z,1004.09
2017-04-26T00:44:02.780Z,1004.1
2017-04-26T00:44:28.916Z,1004.09
2017-04-26T00:44:55.029Z,1004.11
2017-04-26T00:45:21.118Z,1004.1
2017-04-26T00:45:47.253Z,1004.11
2017-04-26T00:46:13.346Z,1004.11
2017-04-26T00:46:39.434Z,1004.12
2017-04-26T00:47:05.538Z,1004.12
2017-04-26T00:47:31.634Z,1004.08
2017-04-26T00:47:57.755Z,1004.12
2017-04-26T00:48:23.847Z,1004.12
2017-04-26T00:48:49.956Z,1004.12
2017-04-26T00:49:16.091Z,1004.13
2017-04-26T00:49:42.238Z,1004.1
2017-04-26T00:50:08.353Z,1004.08
2017-04-26T00:50:34.505Z,1004.07
2017-04-26T00:51:00.629Z,1004.07
2017-04-26T00:51:26.718Z,1004.09
2017-04-26T00:51:52.845Z,1004.07
2017-04-26T00:52:18.975Z,1004.12
2017-04-26T00:52:45.059Z,1004.11
2017-04-26T00:53:11.162Z,1004.09
2017-04-26T00:53:37.302Z,1004.11
2017-04-26T00:54:03.513Z,1004.15
2017-04-26T00:54:29.668Z,1004.11
2017-04-26T00:54:55.778Z,1004.09
2017-04-26T00:55:21.929Z,1004.08
2017-04-26T00:55:48.059Z,1004.09
2017-04-26T00:56:14.167Z,1004.11
2017-04-26T00:56:40.265Z,1004.14
2017-04-26T00:57:06.396Z,1004.13
2017-04-26T00:57:32.482Z,1004.16
2017-04-26T00:57:58.624Z,1004.12
2017-04-26T00:58:24.725Z,1004.11
2017-04-26T00:58:50.817Z,1004.11
2017-04-26T00:59:17.026Z,1004.06
2017-04-26T00:59:43.110Z,1004.07
2017-04-26T01:00:09.229Z,1004.06
2017-04-26T01:00:35.334Z,1004.1
2017-04-26T01:01:01.442Z,1004.09
2017-04-26T01:01:27.584Z,1004.06
2017-04-26T01:01:53.716Z,1004.08
2017-04-26T01:02:19.807Z,1004.08
2017-04-26T01:02:45.966Z,1004.12
2017-04-26T01:03:12.101Z,1004.12
2017-04-26T01:03:38.250Z,1004.1
2017-04-26T01:04:04.363Z,1004.14
2017-04-26T01:04:30.523Z,1004.13
2017-04-26T01:04:56.612Z,1004.12
2017-04-26T01:05:22.742Z,1004.09
2017-04-26T01:05:48.833Z,1004.15
2017-04-26T01:06:14.922Z,1004.13
2017-04-26T01:06:41.029Z,1004.13
2017-04-26T01:07:07.124Z,1004.14
2017-04-26T01:07:33.261Z,1004.19
2017-04-26T01:07:59.542Z,1004.21
2017-04-26T01:08:25.664Z,1004.18
2017-04-26T01:08:51.852Z,1004.22
2017-04-26T01:09:17.974Z,1004.21
2017-04-26T01:09:44.105Z,1004.2
2017-04-26T01:10:10.220Z,1004.18
2017-04-26T01:10:36.315Z,1004.14
2017-04-26T01:11:02.401Z,1004.17
2017-04-26T01:11:28.530Z,1004.17
2017-04-26T01:11:54.625Z,1004.12
2017-04-26T01:12:20.713Z,1004.1
2017-04-26T01:12:46.868Z,1004.13
2017-04-26T01:13:13.026Z,1004.08
2017-04-26T01:13:39.135Z,1004.09
2017-04-26T01:14:05.231Z,1004.09
2017-04-26T01:14:31.419Z,1004.11
2017-04-26T01:14:57.532Z,1004.11
2017-04-26T01:15:23.624Z,1004.07
2017-04-26T01:15:49.808Z,1004.07
2017-04-26T01:16:15.925Z,1004.09
2017-04-26T01:16:42.039Z,1004.08
2017-04-26T01:17:08.199Z,1004.06
2017-04-26T01:17:34.348Z,1004.08
2017-04-26T01:18:00.511Z,1004.07
2017-04-26T01:18:26.670Z,1004.08
2017-04-26T01:18:52.873Z,1004.11
2017-04-26T01:19:19.007Z,1004.11
2017-04-26T01:19:45.107Z,1004.14
2017-04-26T01:20:11.210Z,1004.06
2017-04-26T01:20:37.294Z,1004.08
2017-04-26T01:21:03.390Z,1004.15
2017-04-26T01:21:29.503Z,1004.09
2017-04-26T01:21:55.608Z,1004.13
2017-04-26T01:22:21.705Z,1004.13
2017-04-26T01:22:47.791Z,1004.16
2017-04-26T01:23:13.891Z,1004.13
2017-04-26T01:23:40.022Z,1004.13
2017-04-26T01:24:06.132Z,1004.16
2017-04-26T01:24:32.306Z,1004.16
2017-04-26T01:24:58.468Z,1004.12
2017-04-26T01:25:24.581Z,1004.13
2017-04-26T01:25:50.723Z,1004.12
2017-04-26T01:26:16.827Z,1004.12
2017-04-26T01:26:42.918Z,1004.12
2017-04-26T01:27:09.023Z,1004.1
2017-04-26T01:27:35.132Z,1004.12
2017-04-26T01:28:01.253Z,1004.11
2017-04-26T01:28:27.396Z,1004.12
2017-04-26T01:28:53.573Z,1004.09
2017-04-26T01:29:19.665Z,1004.14
2017-04-26T01:29:45.795Z,1004.13
2017-04-26T01:30:11.942Z,1004.09
2017-04-26T01:30:38.028Z,1004.12
2017-04-26T01:31:04.136Z,1004.12
2017-04-26T01:31:30.256Z,1004.12
2017-04-26T01:31:56.392Z,1004.09
2017-04-26T01:32:22.496Z,1004.11
2017-04-26T01:32:48.613Z,1004.08
2017-04-26T01:33:14.800Z,1004.12
2017-04-26T01:33:40.969Z,1004.12
2017-04-26T01:34:07.081Z,1004.1
2017-04-26T01:34:33.267Z,1004.11
2017-04-26T01:34:59.387Z,1004.15
2017-04-26T01:35:25.477Z,1004.13
2017-04-26T01:35:51.581Z,1004.18
2017-04-26T01:36:17.677Z,1004.14
2017-04-26T01:36:43.763Z,1004.13
2017-04-26T01:37:09.890Z,1004.14
2017-04-26T01:37:36.019Z,1004.17
2017-04-26T01:38:02.185Z,1004.18
2017-04-26T01:38:28.278Z,1004.14
2017-04-26T01:38:54.389Z,1004.14
2017-04-26T01:39:20.520Z,1004.16
2017-04-26T01:39:46.645Z,1004.15
2017-04-26T01:40:12.754Z,1004.15
2017-04-26T01:40:38.880Z,1004.17
2017-04-26T01:41:04.981Z,1004.21
2017-04-26T01:41:31.089Z,1004.18
2017-04-26T01:41:57.210Z,1004.19
2017-04-26T01:42:23.313Z,1004.19
2017-04-26T01:42:49.403Z,1004.22
2017-04-26T01:43:15.496Z,1004.2
2017-04-26T01:43:41.644Z,1004.21
2017-04-26T01:44:07.797Z,1004.2
2017-04-26T01:44:33.979Z,1004.22
2017-04-26T01:45:00.116Z,1004.22
2017-04-26T01:45:26.210Z,1004.23
2017-04-26T01:45:52.315Z,1004.21
2017-04-26T01:46:18.402Z,1004.23
2017-04-26T01:46:44.545Z,1004.23
2017-04-26T01:47:10.674Z,1004.21
2017-04-26T01:47:36.767Z,1004.19
2017-04-26T01:48:02.879Z,1004.18
2017-04-26T01:48:29.015Z,1004.2
2017-04-26T01:48:55.133Z,1004.17
2017-04-26T01:49:21.286Z,1004.16
2017-04-26T01:49:47.373Z,1004.15
2017-04-26T01:50:13.467Z,1004.17
2017-04-26T01:50:39.570Z,1004.16
2017-04-26T01:51:05.662Z,1004.16
2017-04-26T01:51:31.776Z,1004.19
2017-04-26T01:51:57.882Z,1004.19
2017-04-26T01:52:23.974Z,1004.22
2017-04-26T01:52:50.134Z,1004.18
2017-04-26T01:53:16.286Z,1004.2
2017-04-26T01:53:42.441Z,1004.24
2017-04-26T01:54:08.577Z,1004.22
2017-04-26T01:54:34.728Z,1004.2
2017-04-26T01:55:00.841Z,1004.21
2017-04-26T01:55:26.946Z,1004.21
2017-04-26T01:55:53.065Z,1004.18
2017-04-26T01:56:19.180Z,1004.22
2017-04-26T01:56:45.309Z,1004.24
2017-04-26T01:57:11.437Z,1004.24
2017-04-26T01:57:37.568Z,1004.26
2017-04-26T01:58:03.693Z,1004.24
2017-04-26T01:58:29.799Z,1004.22
2017-04-26T01:58:55.905Z,1004.23
2017-04-26T01:59:22.053Z,1004.23
2017-04-26T01:59:48.183Z,1004.22
2017-04-26T02:00:14.320Z,1004.2
2017-04-26T02:00:40.436Z,1004.27
2017-04-26T02:01:06.568Z,1004.23
2017-04-26T02:01:32.761Z,1004.23
2017-04-26T02:01:58.843Z,1004.3
2017-04-26T02:02:25.007Z,1004.3
2017-04-26T02:02:51.123Z,1004.32
2017-04-26T02:03:17.236Z,1004.32
2017-04-26T02:03:43.394Z,1004.32
2017-04-26T02:04:09.519Z,1004.3
2017-04-26T02:04:35.656Z,1004.3
2017-04-26T02:05:01.756Z,1004.33
2017-04-26T02:05:27.887Z,1004.33
2017-04-26T02:05:54.003Z,1004.31
2017-04-26T02:06:20.096Z,1004.32
2017-04-26T02:06:46.186Z,1004.32
2017-04-26T02:07:12.291Z,1004.29
2017-04-26T02:07:38.414Z,1004.34
2017-04-26T02:08:04.548Z,1004.32
2017-04-26T02:08:30.703Z,1004.34
2017-04-26T02:08:56.861Z,1004.33
2017-04-26T02:09:22.944Z,1004.29
2017-04-26T02:09:49.089Z,1004.31
2017-04-26T02:10:15.218Z,1004.33
2017-04-26T02:10:41.306Z,1004.34
2017-04-26T02:11:07.398Z,1004.36
2017-04-26T02:11:33.545Z,1004.31
2017-04-26T02:11:59.644Z,1004.34
2017-04-26T02:12:25.772Z,1004.34
2017-04-26T02:12:51.880Z,1004.35
2017-04-26T02:13:18.029Z,1004.34
2017-04-26T02:13:44.185Z,1004.33
2017-04-26T02:14:10.298Z,1004.33
2017-04-26T02:14:36.442Z,1004.37
2017-04-26T02:15:02.573Z,1004.32
2017-04-26T02:15:28.663Z,1004.34
2017-04-26T02:15:54.750Z,1004.36
2017-04-26T02:16:20.855Z,1004.36
2017-04-26T02:16:47.006Z,1004.32
2017-04-26T02:17:13.130Z,1004.33
2017-04-26T02:17:39.218Z,1004.35
2017-04-26T02:18:05.361Z,1004.36
2017-04-26T02:18:31.464Z,1004.32
2017-04-26T02:18:57.631Z,1004.33
2017-04-26T02:19:23.794Z,1004.31
2017-04-26T02:19:49.899Z,1004.36
2017-04-26T02:20:16.021Z,1004.32
2017-04-26T02:20:42.109Z,1004.32
2017-04-26T02:21:08.214Z,1004.32
2017-04-26T02:21:34.311Z,1004.33
2017-04-26T02:22:00.420Z,1004.35
2017-04-26T02:22:26.518Z,1004.32
2017-04-26T02:22:52.632Z,1004.33
2017-04-26T02:23:18.738Z,1004.28
2017-04-26T02:23:44.859Z,1004.29
2017-04-26T02:24:10.972Z,1004.3
2017-04-26T02:24:37.151Z,1004.26
2017-04-26T02:25:03.276Z,1004.25
2017-04-26T02:25:29.364Z,1004.24
2017-04-26T02:25:55.462Z,1004.28
2017-04-26T02:26:21.565Z,1004.29
2017-04-26T02:26:47.700Z,1004.26
2017-04-26T02:27:13.849Z,1004.26
2017-04-26T02:27:40.009Z,1004.23
2017-04-26T02:28:06.145Z,1004.22
2017-04-26T02:28:32.269Z,1004.26
2017-04-26T02:28:58.406Z,1004.28
2017-04-26T02:29:24.560Z,1004.27
2017-04-26T02:29:50.692Z,1004.26
2017-04-26T02:30:16.778Z,1004.24
2017-04-26T02:30:42.901Z,1004.23
2017-04-26T02:31:09.030Z,1004.24
2017-04-26T02:31:35.145Z,1004.25
2017-04-26T02:32:01.261Z,1004.25
2017-04-26T02:32:27.364Z,1004.28
2017-04-26T02:32:53.482Z,1004.26
2017-04-26T02:33:19.617Z,1004.22
2017-04-26T02:33:45.745Z,1004.26
2017-04-26T02:34:11.888Z,1004.26
2017-04-26T02:34:37.990Z,1004.28
2017-04-26T02:35:04.153Z,1004.27
2017-04-26T02:35:30.296Z,1004.25
2017-04-26T02:35:56.426Z,1004.29
2017-04-26T02:36:22.541Z,1004.28
2017-04-26T02:36:48.678Z,1004.28
2017-04-26T02:37:14.782Z,1004.3
2017-04-26T02:37:40.928Z,1004.29
2017-04-26T02:38:07.068Z,1004.3
2017-04-26T02:38:33.222Z,1004.32
2017-04-26T02:38:59.372Z,1004.31
2017-04-26T02:39:25.543Z,1004.31
2017-04-26T02:39:51.634Z,1004.29
2017-04-26T02:40:17.746Z,1004.29
2017-04-26T02:40:43.849Z,1004.29
2017-04-26T02:41:09.967Z,1004.27
2017-04-26T02:41:36.055Z,1004.26
2017-04-26T02:42:02.188Z,1004.27
2017-04-26T02:42:28.282Z,1004.25
2017-04-26T02:42:54.445Z,1004.23
2017-04-26T02:43:20.547Z,1004.24
2017-04-26T02:43:46.707Z,1004.23
2017-04-26T02:44:12.789Z,1004.24
2017-04-26T02:44:38.935Z,1004.24
2017-04-26T02:45:05.039Z,1004.23
2017-04-26T02:45:31.126Z,1004.23
2017-04-26T02:45:57.220Z,1004.25
2017-04-26T02:46:23.321Z,1004.25
2017-04-26T02:46:49.435Z,1004.26
2017-04-26T02:47:15.521Z,1004.25
2017-04-26T02:47:41.653Z,1004.24
2017-04-26T02:48:07.808Z,1004.27
2017-04-26T02:48:33.969Z,1004.24
2017-04-26T02:49:00.151Z,1004.26
2017-04-26T02:49:26.279Z,1004.27
2017-04-26T02:49:52.366Z,1004.26
2017-04-26T02:50:18.466Z,1004.24
2017-04-26T02:50:44.577Z,1004.26
2017-04-26T02:51:10.710Z,1004.27
2017-04-26T02:51:36.831Z,1004.29
2017-04-26T02:52:02.968Z,1004.27
2017-04-26T02:52:29.069Z,1004.3
2017-04-26T02:52:55.222Z,1004.29
2017-04-26T02:53:21.383Z,1004.29
2017-04-26T02:53:47.537Z,1004.29
2017-04-26T02:54:13.667Z,1004.31
2017-04-26T02:54:39.776Z,1004.33
2017-04-26T02:55:05.870Z,1004.29
2017-04-26T02:55:32.028Z,1004.3
2017-04-26T02:55:58.150Z,1004.3
2017-04-26T02:56:24.289Z,1004.3
2017-04-26T02:56:50.391Z,1004.32
2017-04-26T02:57:16.534Z,1004.31
2017-04-26T02:57:42.647Z,1004.3
2017-04-26T02:58:08.807Z,1004.32
2017-04-26T02:58:34.927Z,1004.33
2017-04-26T02:59:01.035Z,1004.3
2017-04-26T02:59:27.163Z,1004.29
2017-04-26T02:59:53.257Z,1004.27
2017-04-26T03:00:19.370Z,1004.3
2017-04-26T03:00:45.492Z,1004.26
2017-04-26T03:01:11.624Z,1004.29
2017-04-26T03:01:37.712Z,1004.23
2017-04-26T03:02:03.859Z,1004.3
2017-04-26T03:02:29.947Z,1004.27
2017-04-26T03:02:56.132Z,1004.27
2017-04-26T03:03:22.288Z,1004.27
2017-04-26T03:03:48.400Z,1004.28
2017-04-26T03:04:14.554Z,1004.28
2017-04-26T03:04:40.739Z,1004.3
2017-04-26T03:05:06.871Z,1004.27
2017-04-26T03:05:32.967Z,1004.27
2017-04-26T03:05:59.121Z,1004.3
2017-04-26T03:06:25.208Z,1004.29
2017-04-26T03:06:51.301Z,1004.3
2017-04-26T03:07:17.446Z,1004.26
2017-04-26T03:07:43.625Z,1004.3
2017-04-26T03:08:09.758Z,1004.28
2017-04-26T03:08:35.867Z,1004.28
2017-04-26T03:09:01.963Z,1004.26
2017-04-26T03:09:28.092Z,1004.24
2017-04-26T03:09:54.180Z,1004.26
2017-04-26T03:10:20.299Z,1004.26
2017-04-26T03:10:46.429Z,1004.27
2017-04-26T03:11:12.550Z,1004.29
2017-04-26T03:11:38.631Z,1004.27
2017-04-26T03:12:04.736Z,1004.28
2017-04-26T03:12:30.830Z,1004.25
2017-04-26T03:12:57.006Z,1004.23
2017-04-26T03:13:23.144Z,1004.27
2017-04-26T03:13:49.309Z,1004.25
2017-04-26T03:14:15.440Z,1004.26
2017-04-26T03:14:41.587Z,1004.23
2017-04-26T03:15:07.724Z,1004.24
2017-04-26T03:15:33.829Z,1004.26
2017-04-26T03:15:59.948Z,1004.24
2017-04-26T03:16:26.059Z,1004.25
2017-04-26T03:16:52.163Z,1004.24
2017-04-26T03:17:18.311Z,1004.24
2017-04-26T03:17:44.424Z,1004.2
2017-04-26T03:18:10.550Z,1004.21
2017-04-26T03:18:36.637Z,1004.23
2017-04-26T03:19:02.772Z,1004.21
2017-04-26T03:19:28.945Z,1004.24
2017-04-26T03:19:55.034Z,1004.22
2017-04-26T03:20:21.165Z,1004.22
2017-04-26T03:20:47.262Z,1004.22
2017-04-26T03:21:13.348Z,1004.24
2017-04-26T03:21:39.502Z,1004.28
2017-04-26T03:22:05.606Z,1004.25
2017-04-26T03:22:31.689Z,1004.27
2017-04-26T03:22:57.784Z,1004.28
2017-04-26T03:23:23.915Z,1004.26
2017-04-26T03:23:50.054Z,1004.21
2017-04-26T03:24:16.153Z,1004.21
2017-04-26T03:24:42.288Z,1004.22
2017-04-26T03:25:08.441Z,1004.21
2017-04-26T03:25:34.572Z,1004.22
2017-04-26T03:26:00.655Z,1004.23
2017-04-26T03:26:26.777Z,1004.21
2017-04-26T03:26:52.907Z,1004.23
2017-04-26T03:27:18.993Z,1004.21
2017-04-26T03:27:45.113Z,1004.2
2017-04-26T03:28:11.215Z,1004.24
2017-04-26T03:28:37.385Z,1004.23
2017-04-26T03:29:03.503Z,1004.25
2017-04-26T03:29:29.637Z,1004.24
2017-04-26T03:29:55.758Z,1004.25
2017-04-26T03:30:21.896Z,1004.2
2017-04-26T03:30:47.998Z,1004.25
2017-04-26T03:31:14.095Z,1004.23
2017-04-26T03:31:40.180Z,1004.25
2017-04-26T03:32:06.279Z,1004.23
2017-04-26T03:32:32.407Z,1004.21
2017-04-26T03:32:58.517Z,1004.19
2017-04-26T03:33:24.637Z,1004.24
2017-04-26T03:33:50.793Z,1004.24
2017-04-26T03:34:16.904Z,1004.19
2017-04-26T03:34:42.995Z,1004.22
2017-04-26T03:35:09.089Z,1004.22
2017-04-26T03:35:35.188Z,1004.22
2017-04-26T03:36:01.289Z,1004.2
2017-04-26T03:36:27.371Z,1004.2
2017-04-26T03:36:53.466Z,1004.24
2017-04-26T03:37:19.570Z,1004.22
2017-04-26T03:37:45.683Z,1004.26
2017-04-26T03:38:11.850Z,1004.23
2017-04-26T03:38:37.956Z,1004.22
2017-04-26T03:39:04.124Z,1004.21
2017-04-26T03:39:30.234Z,1004.2
2017-04-26T03:39:56.341Z,1004.22
2017-04-26T03:40:22.489Z,1004.2
2017-04-26T03:40:48.617Z,1004.19
2017-04-26T03:41:14.731Z,1004.17
2017-04-26T03:41:40.822Z,1004.18
2017-04-26T03:42:06.952Z,1004.19
2017-04-26T03:42:33.069Z,1004.18
2017-04-26T03:42:59.182Z,1004.19
2017-04-26T03:43:25.315Z,1004.19
2017-04-26T03:43:51.407Z,1004.15
2017-04-26T03:44:17.544Z,1004.16
2017-04-26T03:44:43.736Z,1004.19
2017-04-26T03:45:09.859Z,1004.18
2017-04-26T03:45:35.967Z,1004.14
2017-04-26T03:46:02.125Z,1004.16
2017-04-26T03:46:28.209Z,1004.18
2017-04-26T03:46:54.342Z,1004.18
2017-04-26T03:47:20.434Z,1004.14
2017-04-26T03:47:46.546Z,1004.14
2017-04-26T03:48:12.703Z,1004.17
2017-04-26T03:48:38.858Z,1004.13
2017-04-26T03:49:04.994Z,1004.13
2017-04-26T03:49:31.092Z,1004.16
2017-04-26T03:49:57.250Z,1004.15
2017-04-26T03:50:23.379Z,1004.13
2017-04-26T03:50:49.504Z,1004.13
2017-04-26T03:51:15.606Z,1004.13
2017-04-26T03:51:41.693Z,1004.11
2017-04-26T03:52:07.821Z,1004.13
2017-04-26T03:52:34.081Z,1004.15
2017-04-26T03:53:00.203Z,1004.14
2017-04-26T03:53:26.333Z,1004.12
2017-04-26T03:53:52.438Z,1004.14
2017-04-26T03:54:18.534Z,1004.13
2017-04-26T03:54:44.665Z,1004.12
2017-04-26T03:55:10.776Z,1004.17
2017-04-26T03:55:36.923Z,1004.22
2017-04-26T03:56:02.997Z,1004.14
2017-04-26T03:56:29.087Z,1004.2
2017-04-26T03:56:55.185Z,1004.21
2017-04-26T03:57:21.326Z,1004.2
2017-04-26T03:57:47.500Z,1004.22
2017-04-26T03:58:13.689Z,1004.23
2017-04-26T03:58:39.802Z,1004.23
2017-04-26T03:59:05.896Z,1004.21
2017-04-26T03:59:32.025Z,1004.23
2017-04-26T03:59:58.142Z,1004.22
2017-04-26T04:00:24.274Z,1004.24
2017-04-26T04:00:50.381Z,1004.22
2017-04-26T04:01:16.503Z,1004.24
2017-04-26T04:01:42.590Z,1004.26
2017-04-26T04:02:08.721Z,1004.23
2017-04-26T04:02:34.817Z,1004.23
2017-04-26T04:03:00.912Z,1004.25
2017-04-26T04:03:27.025Z,1004.25
2017-04-26T04:03:53.113Z,1004.27
2017-04-26T04:04:19.248Z,1004.3
2017-04-26T04:04:45.341Z,1004.29
2017-04-26T04:05:11.453Z,1004.26
2017-04-26T04:05:37.557Z,1004.29
2017-04-26T04:06:03.654Z,1004.3
2017-04-26T04:06:29.790Z,1004.26
2017-04-26T04:06:55.892Z,1004.3
2017-04-26T04:07:21.995Z,1004.26
2017-04-26T04:07:48.102Z,1004.27
2017-04-26T04:08:14.229Z,1004.29
2017-04-26T04:08:40.365Z,1004.27
2017-04-26T04:09:06.470Z,1004.26
2017-04-26T04:09:32.594Z,1004.31
2017-04-26T04:09:58.753Z,1004.28
2017-04-26T04:10:24.855Z,1004.23
2017-04-26T04:10:51.011Z,1004.24
2017-04-26T04:11:17.095Z,1004.26
2017-04-26T04:11:43.192Z,1004.25
2017-04-26T04:12:09.325Z,1004.25
2017-04-26T04:12:35.413Z,1004.29
2017-04-26T04:13:01.506Z,1004.28
2017-04-26T04:13:27.607Z,1004.32
2017-04-26T04:13:53.725Z,1004.27
2017-04-26T04:14:19.887Z,1004.34
2017-04-26T04:14:46.021Z,1004.28
2017-04-26T04:15:12.167Z,1004.32
2017-04-26T04:15:38.279Z,1004.28
2017-04-26T04:16:04.382Z,1004.31
2017-04-26T04:16:30.508Z,1004.32
2017-04-26T04:16:56.594Z,1004.28
2017-04-26T04:17:22.719Z,1004.28
2017-04-26T04:17:48.877Z,1004.3
2017-04-26T04:18:15.014Z,1004.27
2017-04-26T04:18:41.211Z,1004.26
2017-04-26T04:19:07.396Z,1004.25
2017-04-26T04:19:33.530Z,1004.28
2017-04-26T04:19:59.659Z,1004.26
2017-04-26T04:20:25.794Z,1004.27
2017-04-26T04:20:51.923Z,1004.27
2017-04-26T04:21:18.024Z,1004.27
2017-04-26T04:21:44.109Z,1004.29
2017-04-26T04:22:10.206Z,1004.26
2017-04-26T04:22:36.308Z,1004.25
2017-04-26T04:23:02.397Z,1004.25
2017-04-26T04:23:28.515Z,1004.27
2017-04-26T04:23:54.620Z,1004.26
2017-04-26T04:24:20.736Z,1004.24
2017-04-26T04:24:46.872Z,1004.23
2017-04-26T04:25:13.001Z,1004.26
2017-04-26T04:25:39.121Z,1004.28
2017-04-26T04:26:05.223Z,1004.22
2017-04-26T04:26:31.310Z,1004.25
2017-04-26T04:26:57.425Z,1004.24
2017-04-26T04:27:23.525Z,1004.24
2017-04-26T04:27:49.639Z,1004.31
2017-04-26T04:28:15.752Z,1004.27
2017-04-26T04:28:41.913Z,1004.26
2017-04-26T04:29:08.062Z,1004.26
2017-04-26T04:29:34.196Z,1004.29
2017-04-26T04:30:00.356Z,1004.28
2017-04-26T04:30:26.481Z,1004.31
2017-04-26T04:30:52.626Z,1004.29
2017-04-26T04:31:18.717Z,1004.28
2017-04-26T04:31:44.801Z,1004.33
2017-04-26T04:32:10.908Z,1004.33
2017-04-26T04:32:37.001Z,1004.3
2017-04-26T04:33:03.088Z,1004.37
2017-04-26T04:33:29.246Z,1004.36
2017-04-26T04:33:55.401Z,1004.33
2017-04-26T04:34:21.535Z,1004.33
2017-04-26T04:34:47.633Z,1004.34
2017-04-26T04:35:13.765Z,1004.34
2017-04-26T04:35:39.847Z,1004.31
2017-04-26T04:36:05.942Z,1004.3
2017-04-26T04:36:32.033Z,1004.33
2017-04-26T04:36:58.159Z,1004.34
2017-04-26T04:37:24.282Z,1004.33
2017-04-26T04:37:50.373Z,1004.34
2017-04-26T04:38:16.473Z,1004.29
2017-04-26T04:38:42.656Z,1004.3
2017-04-26T04:39:08.789Z,1004.35
2017-04-26T04:39:34.933Z,1004.39
2017-04-26T04:40:01.035Z,1004.36
2017-04-26T04:40:27.149Z,1004.35
2017-04-26T04:40:53.241Z,1004.33
2017-04-26T04:41:19.372Z,1004.35
2017-04-26T04:41:45.487Z,1004.39
2017-04-26T04:42:11.589Z,1004.34
2017-04-26T04:42:37.674Z,1004.39
2017-04-26T04:43:03.796Z,1004.37
2017-04-26T04:43:29.899Z,1004.36
2017-04-26T04:43:56.013Z,1004.36
2017-04-26T04:44:22.108Z,1004.37
2017-04-26T04:44:48.211Z,1004.39
2017-04-26T04:45:14.301Z,1004.38
2017-04-26T04:45:40.460Z,1004.38
2017-04-26T04:46:06.619Z,1004.42
2017-04-26T04:46:32.713Z,1004.42
2017-04-26T04:46:58.851Z,1004.43
2017-04-26T04:47:25.009Z,1004.41
2017-04-26T04:47:51.151Z,1004.44
2017-04-26T04:48:17.253Z,1004.44
2017-04-26T04:48:43.395Z,1004.44
2017-04-26T04:49:09.507Z,1004.44
2017-04-26T04:49:35.639Z,1004.47
2017-04-26T04:50:01.761Z,1004.5
2017-04-26T04:50:27.848Z,1004.48
2017-04-26T04:50:53.978Z,1004.48
2017-04-26T04:51:20.074Z,1004.5
2017-04-26T04:51:46.188Z,1004.51
2017-04-26T04:52:12.287Z,1004.52
2017-04-26T04:52:38.516Z,1004.56
2017-04-26T04:53:04.653Z,1004.58
2017-04-26T04:53:30.774Z,1004.58
2017-04-26T04:53:56.936Z,1004.57
2017-04-26T04:54:23.065Z,1004.6
2017-04-26T04:54:49.187Z,1004.61
2017-04-26T04:55:15.301Z,1004.59
2017-04-26T04:55:41.454Z,1004.61
2017-04-26T04:56:07.585Z,1004.58
2017-04-26T04:56:33.667Z,1004.61
2017-04-26T04:56:59.786Z,1004.62
2017-04-26T04:57:25.892Z,1004.63
2017-04-26T04:57:52.006Z,1004.6
2017-04-26T04:58:18.124Z,1004.65
2017-04-26T04:58:44.280Z,1004.65
2017-04-26T04:59:10.395Z,1004.6
2017-04-26T04:59:36.506Z,1004.64
2017-04-26T05:00:02.668Z,1004.64
2017-04-26T05:00:28.761Z,1004.66
2017-04-26T05:00:54.849Z,1004.65
2017-04-26T05:01:20.953Z,1004.63
2017-04-26T05:01:47.049Z,1004.63
2017-04-26T05:02:13.161Z,1004.67
2017-04-26T05:02:39.339Z,1004.67
2017-04-26T05:03:05.497Z,1004.68
2017-04-26T05:03:31.653Z,1004.67
2017-04-26T05:03:57.802Z,1004.67
2017-04-26T05:04:23.915Z,1004.7
2017-04-26T05:04:50.019Z,1004.71
2017-04-26T05:05:16.170Z,1004.71
2017-04-26T05:05:42.258Z,1004.71
2017-04-26T05:06:08.358Z,1004.74
2017-04-26T05:06:34.492Z,1004.75
2017-04-26T05:07:00.576Z,1004.77
2017-04-26T05:07:26.675Z,1004.75
2017-04-26T05:07:52.860Z,1004.76
2017-04-26T05:08:18.948Z,1004.79
2017-04-26T05:08:45.041Z,1004.8
2017-04-26T05:09:11.172Z,1004.75
2017-04-26T05:09:37.315Z,1004.81
2017-04-26T05:10:03.448Z,1004.8
2017-04-26T05:10:29.533Z,1004.81
2017-04-26T05:10:55.629Z,1004.83
2017-04-26T05:11:21.729Z,1004.81
2017-04-26T05:11:47.815Z,1004.82
2017-04-26T05:12:13.933Z,1004.83
2017-04-26T05:12:40.065Z,1004.83
2017-04-26T05:13:06.179Z,1004.8
2017-04-26T05:13:32.314Z,1004.85
2017-04-26T05:13:58.476Z,1004.85
2017-04-26T05:14:24.625Z,1004.83
2017-04-26T05:14:50.763Z,1004.84
2017-04-26T05:15:16.890Z,1004.89
2017-04-26T05:15:42.980Z,1004.87
2017-04-26T05:16:09.085Z,1004.89
2017-04-26T05:16:35.176Z,1004.86